Metar z pełnej godziny Komunikat METAR ze strony awiacja.imgw.pl Metar G00 EPBY METAR EPBY 200200Z 19003KT 160V220 CAVOK 16/11 Q1015 =